createdAt,value
2019-02-28T00:01:11.863Z,92.57
2019-02-28T00:03:46.614Z,94.67
2019-02-28T00:06:22.364Z,95.77
2019-02-28T00:08:56.487Z,98.00
2019-02-28T00:11:30.675Z,97.20
2019-02-28T00:14:04.859Z,98.17
2019-02-28T00:16:39.154Z,97.63
2019-02-28T00:19:13.366Z,99.03
2019-02-28T00:21:50.597Z,100.40
2019-02-28T00:24:27.162Z,101.65
2019-02-28T00:26:59.875Z,101.50
2019-02-28T00:29:34.458Z,103.50
2019-02-28T00:32:10.525Z,105.93
2019-02-28T00:35:05.332Z,104.43
2019-02-28T00:37:39.707Z,103.58
2019-02-28T00:40:14.334Z,101.47
2019-02-28T00:42:50.885Z,103.80
2019-02-28T00:45:26.484Z,102.60
2019-02-28T00:48:03.150Z,101.53
2019-02-28T00:50:37.252Z,103.73
2019-02-28T00:53:11.291Z,103.17
2019-02-28T00:55:46.210Z,100.42
2019-02-28T00:58:22.481Z,99.23
2019-02-28T01:00:56.940Z,100.10
2019-02-28T01:03:31.199Z,96.67
2019-02-28T01:06:09.755Z,100.03
2019-02-28T01:08:42.144Z,94.47
2019-02-28T01:11:18.345Z,91.57
2019-02-28T01:13:52.224Z,87.30
2019-02-28T01:16:27.922Z,90.37
2019-02-28T01:19:08.595Z,88.65
2019-02-28T01:21:39.098Z,81.23
2019-02-28T01:24:14.671Z,85.72
2019-02-28T01:26:48.773Z,87.00
2019-02-28T01:29:33.010Z,83.67
2019-02-28T01:32:07.786Z,84.53
2019-02-28T01:34:42.010Z,83.50
2019-02-28T01:37:16.238Z,83.25
2019-02-28T01:39:50.555Z,81.57
2019-02-28T01:42:24.644Z,84.17
2019-02-28T01:45:00.773Z,81.87
2019-02-28T01:47:35.049Z,82.17
2019-02-28T01:50:11.551Z,82.43
2019-02-28T01:52:48.906Z,84.07
2019-02-28T01:55:23.097Z,79.80
2019-02-28T01:57:57.207Z,78.33
2019-02-28T02:00:31.422Z,83.35
2019-02-28T02:03:05.704Z,78.00
2019-02-28T02:05:41.506Z,82.47
2019-02-28T02:08:16.348Z,73.92
2019-02-28T02:10:54.933Z,74.62
2019-02-28T02:13:25.947Z,76.53
2019-02-28T02:16:01.501Z,79.30
2019-02-28T02:18:35.498Z,81.13
2019-02-28T02:21:11.270Z,75.73
2019-02-28T02:23:49.641Z,70.93
2019-02-28T02:26:24.065Z,69.70
2019-02-28T02:29:03.188Z,74.03
2019-02-28T02:31:37.392Z,72.97
2019-02-28T02:34:11.536Z,74.77
2019-02-28T02:36:53.046Z,76.07
2019-02-28T02:39:21.976Z,71.60
2019-02-28T02:41:55.967Z,72.87
2019-02-28T02:44:31.749Z,72.37
2019-02-28T02:47:05.253Z,68.90
2019-02-28T02:49:39.550Z,71.27
2019-02-28T02:52:18.203Z,71.10
2019-02-28T02:54:53.665Z,65.30
2019-02-28T02:57:27.880Z,70.23
2019-02-28T03:00:03.323Z,72.30
2019-02-28T03:02:37.508Z,74.67
2019-02-28T03:05:13.451Z,80.35
2019-02-28T03:07:47.655Z,81.80
2019-02-28T03:10:21.895Z,74.90
2019-02-28T03:12:56.136Z,74.50
2019-02-28T03:15:31.687Z,77.20
2019-02-28T03:18:26.816Z,80.97
2019-02-28T03:21:01.179Z,75.57
2019-02-28T03:23:40.178Z,77.67
2019-02-28T03:26:12.629Z,79.57
2019-02-28T03:28:46.906Z,75.33
2019-02-28T03:31:21.113Z,74.97
2019-02-28T03:33:55.227Z,77.82
2019-02-28T03:36:29.668Z,71.43
2019-02-28T03:39:03.847Z,70.70
2019-02-28T03:41:38.177Z,78.07
2019-02-28T03:44:19.862Z,75.17
2019-02-28T03:46:48.932Z,75.55
2019-02-28T03:49:23.757Z,73.87
2019-02-28T03:52:04.999Z,71.37
2019-02-28T03:54:37.423Z,76.05
2019-02-28T03:57:12.333Z,71.40
2019-02-28T03:59:55.449Z,70.03
2019-02-28T04:02:24.532Z,68.72
2019-02-28T04:04:58.584Z,60.30
2019-02-28T04:07:34.591Z,63.37
2019-02-28T04:10:10.995Z,64.10
2019-02-28T04:12:46.781Z,63.50
2019-02-28T04:15:21.079Z,57.37
2019-02-28T04:23:48.059Z,51.47
2019-02-28T04:26:23.656Z,52.03
2019-02-28T04:28:57.637Z,52.20
2019-02-28T04:31:31.638Z,48.43
2019-02-28T04:34:12.929Z,51.43
2019-02-28T04:36:43.445Z,53.15
2019-02-28T04:39:18.804Z,51.10
2019-02-28T04:41:54.599Z,47.93
2019-02-28T04:44:28.636Z,42.63
2019-02-28T04:47:03.449Z,40.80
2019-02-28T04:49:37.750Z,39.17
2019-02-28T04:52:18.898Z,38.33
2019-02-28T04:54:54.739Z,36.37
2019-02-28T04:57:29.097Z,40.17
2019-02-28T05:00:05.900Z,44.57
2019-02-28T05:02:39.774Z,42.10
2019-02-28T05:05:13.968Z,35.20
2019-02-28T05:07:50.017Z,39.47
2019-02-28T05:10:25.160Z,40.53
2019-02-28T05:12:59.065Z,40.50
2019-02-28T05:15:37.518Z,36.43
2019-02-28T05:18:08.595Z,35.97
2019-02-28T05:20:45.970Z,35.20
2019-02-28T05:23:20.990Z,35.40
2019-02-28T05:25:54.983Z,35.13
2019-02-28T05:28:28.766Z,34.23
2019-02-28T05:31:04.177Z,32.67
2019-02-28T05:33:38.382Z,30.33
2019-02-28T05:36:15.082Z,29.87
2019-02-28T05:38:53.587Z,28.87
2019-02-28T05:41:25.840Z,27.97
2019-02-28T05:44:03.290Z,25.47
2019-02-28T05:46:36.662Z,24.57
2019-02-28T05:49:10.512Z,26.17
2019-02-28T05:51:45.851Z,23.37
2019-02-28T05:54:21.217Z,20.13
2019-02-28T05:56:55.272Z,19.73
2019-02-28T05:59:30.560Z,20.90
2019-02-28T06:02:04.541Z,22.80
2019-02-28T06:04:38.538Z,23.43
2019-02-28T06:07:12.516Z,21.87
2019-02-28T06:09:48.799Z,21.53
2019-02-28T06:12:21.469Z,23.00
2019-02-28T06:15:01.944Z,23.23
2019-02-28T06:17:32.172Z,23.90
2019-02-28T06:20:08.348Z,24.00
2019-02-28T06:22:42.225Z,23.83
2019-02-28T06:25:24.060Z,23.67
2019-02-28T06:27:51.831Z,24.87
2019-02-28T06:30:27.619Z,25.97
2019-02-28T06:33:00.640Z,27.03
2019-02-28T06:35:34.532Z,25.73
2019-02-28T06:38:08.353Z,25.43
2019-02-28T06:40:42.627Z,27.17
2019-02-28T06:43:18.808Z,29.90
2019-02-28T06:45:51.639Z,29.10
2019-02-28T06:48:26.628Z,28.37
2019-02-28T06:51:00.729Z,30.60
2019-02-28T06:53:36.376Z,30.33
2019-02-28T06:56:10.237Z,31.87
2019-02-28T06:58:51.258Z,30.37
2019-02-28T07:01:25.779Z,30.17
2019-02-28T07:04:01.145Z,28.33
2019-02-28T07:06:35.935Z,28.62
2019-02-28T07:09:11.001Z,27.93
2019-02-28T07:11:46.815Z,29.30
2019-02-28T07:14:20.868Z,28.53
2019-02-28T07:16:54.787Z,29.27
2019-02-28T07:19:31.027Z,27.90
2019-02-28T07:22:04.943Z,29.35
2019-02-28T07:24:40.545Z,30.73
2019-02-28T07:27:15.913Z,31.17
2019-02-28T07:29:49.942Z,31.33
2019-02-28T07:32:26.202Z,33.38
2019-02-28T07:35:00.796Z,32.80
2019-02-28T07:37:34.619Z,34.23
2019-02-28T07:40:15.753Z,33.70
2019-02-28T07:42:50.501Z,32.57
2019-02-28T07:45:24.566Z,31.50
2019-02-28T07:48:00.734Z,32.43
2019-02-28T07:50:34.625Z,30.03
2019-02-28T07:53:11.801Z,30.53
2019-02-28T07:55:46.035Z,32.47
2019-02-28T07:58:20.012Z,32.07
2019-02-28T08:00:54.401Z,32.78
2019-02-28T08:03:30.080Z,33.23
2019-02-28T08:06:04.917Z,32.17
2019-02-28T08:08:40.734Z,33.97
2019-02-28T08:11:16.437Z,34.40
2019-02-28T08:13:55.553Z,35.30
2019-02-28T08:16:34.023Z,32.48
2019-02-28T08:19:06.463Z,31.43
2019-02-28T08:21:47.570Z,30.30
2019-02-28T08:24:18.618Z,29.47
2019-02-28T08:26:53.645Z,29.23
2019-02-28T08:29:27.581Z,28.43
2019-02-28T08:32:06.995Z,27.60
2019-02-28T08:34:38.796Z,29.80
2019-02-28T08:37:12.666Z,30.97
2019-02-28T08:39:46.581Z,27.40
2019-02-28T08:42:20.601Z,28.33
2019-02-28T08:44:58.081Z,27.17
2019-02-28T08:47:29.868Z,27.47
2019-02-28T08:50:05.340Z,26.47
2019-02-28T08:52:41.017Z,27.93
2019-02-28T08:55:27.897Z,25.93
2019-02-28T08:58:04.421Z,25.25
2019-02-28T09:00:33.384Z,27.83
2019-02-28T09:03:08.253Z,28.65
2019-02-28T09:05:43.155Z,26.00
2019-02-28T09:08:17.299Z,26.33
2019-02-28T09:10:56.390Z,25.37
2019-02-28T09:13:32.451Z,24.37
2019-02-28T09:16:09.106Z,25.77
2019-02-28T09:18:44.855Z,24.03
2019-02-28T09:21:21.667Z,25.33
2019-02-28T09:23:59.401Z,24.87
2019-02-28T09:26:36.747Z,25.30
2019-02-28T09:29:14.350Z,24.80
2019-02-28T09:31:48.948Z,24.73
2019-02-28T09:34:24.853Z,24.57
2019-02-28T09:37:00.156Z,24.07
2019-02-28T09:39:35.630Z,26.12
2019-02-28T09:42:14.815Z,25.80
2019-02-28T09:44:52.938Z,26.13
2019-02-28T09:47:27.571Z,25.47
2019-02-28T09:50:08.715Z,25.90
2019-02-28T09:52:44.569Z,24.43
2019-02-28T09:55:25.493Z,26.73
2019-02-28T09:58:07.464Z,26.57
2019-02-28T10:00:39.969Z,25.15
2019-02-28T10:03:15.418Z,27.07
2019-02-28T10:05:51.562Z,25.27
2019-02-28T10:08:27.416Z,25.43
2019-02-28T10:11:03.065Z,25.77
2019-02-28T10:13:38.929Z,26.60
2019-02-28T10:16:13.613Z,24.80
2019-02-28T10:18:48.352Z,27.17
2019-02-28T10:21:25.350Z,28.43
2019-02-28T10:24:01.968Z,27.00
2019-02-28T10:26:38.942Z,30.00
2019-02-28T10:29:15.676Z,28.93
2019-02-28T10:31:54.153Z,29.23
2019-02-28T10:34:35.366Z,29.70
2019-02-28T10:37:11.234Z,29.53
2019-02-28T10:39:46.085Z,28.80
2019-02-28T10:42:24.595Z,28.80
2019-02-28T10:45:06.528Z,30.23
2019-02-28T10:47:40.801Z,30.23
2019-02-28T10:50:32.170Z,31.65
2019-02-28T10:53:06.085Z,30.93
2019-02-28T10:55:41.288Z,32.10
2019-02-28T10:58:27.352Z,33.10
2019-02-28T11:01:08.659Z,33.77
2019-02-28T11:03:42.686Z,33.98
2019-02-28T11:06:18.751Z,32.60
2019-02-28T11:08:57.254Z,33.63
2019-02-28T11:11:32.254Z,33.60
2019-02-28T11:14:08.844Z,34.33
2019-02-28T11:16:46.526Z,34.27
2019-02-28T11:19:27.527Z,35.00
2019-02-28T11:22:05.955Z,36.03
2019-02-28T11:24:41.747Z,36.23
2019-02-28T11:27:20.903Z,37.03
2019-02-28T11:30:00.170Z,36.20
2019-02-28T11:32:36.412Z,36.27
2019-02-28T11:35:13.718Z,36.40
2019-02-28T11:37:48.809Z,38.10
2019-02-28T11:40:26.412Z,36.67
2019-02-28T11:43:02.870Z,37.23
2019-02-28T11:45:39.860Z,36.70
2019-02-28T11:48:23.409Z,36.97
2019-02-28T11:50:58.761Z,37.63
2019-02-28T11:53:39.380Z,37.37
2019-02-28T11:56:11.052Z,38.17
2019-02-28T11:58:51.481Z,38.80
2019-02-28T12:01:25.858Z,38.27
2019-02-28T12:04:03.825Z,38.60
2019-02-28T12:06:44.274Z,38.37
2019-02-28T12:09:21.025Z,37.97
2019-02-28T12:12:01.959Z,38.53
2019-02-28T12:14:39.976Z,38.47
2019-02-28T12:17:18.548Z,39.60
2019-02-28T12:19:53.873Z,37.93
2019-02-28T12:22:35.450Z,38.63
2019-02-28T12:25:17.652Z,39.77
2019-02-28T12:27:59.400Z,39.83
2019-02-28T12:30:40.165Z,40.47
2019-02-28T12:33:15.476Z,39.77
2019-02-28T12:36:17.744Z,38.13
2019-02-28T12:38:44.567Z,40.80
2019-02-28T12:41:21.700Z,40.97
2019-02-28T12:43:59.735Z,40.17
2019-02-28T12:46:35.832Z,40.20
2019-02-28T12:49:13.346Z,39.13
2019-02-28T12:51:50.533Z,39.13
2019-02-28T12:54:25.996Z,40.70
2019-02-28T12:57:02.470Z,43.03
2019-02-28T12:59:46.097Z,44.60
2019-02-28T13:02:19.821Z,41.67
2019-02-28T13:04:59.689Z,42.33
2019-02-28T13:07:37.037Z,40.93
2019-02-28T13:10:15.033Z,42.48
2019-02-28T13:13:05.612Z,43.28
2019-02-28T13:15:35.108Z,43.60
2019-02-28T13:18:10.489Z,41.90
2019-02-28T13:20:45.970Z,43.50
2019-02-28T13:23:21.910Z,45.53
2019-02-28T13:25:59.960Z,48.67
2019-02-28T13:28:35.082Z,47.20
2019-02-28T13:31:09.993Z,46.73
2019-02-28T13:33:52.773Z,48.60
2019-02-28T13:36:28.058Z,49.87
2019-02-28T13:39:02.397Z,53.47
2019-02-28T13:41:36.942Z,54.07
2019-02-28T13:44:11.838Z,55.48
2019-02-28T13:46:46.963Z,56.17
2019-02-28T13:49:22.112Z,59.03
2019-02-28T13:51:56.951Z,57.13
2019-02-28T13:54:33.471Z,62.10
2019-02-28T13:57:10.417Z,60.45
2019-02-28T13:59:48.349Z,62.40
2019-02-28T14:02:22.908Z,64.27
2019-02-28T14:04:58.679Z,63.07
2019-02-28T14:07:35.185Z,64.57
2019-02-28T14:10:14.581Z,66.20
2019-02-28T14:12:52.979Z,64.65
2019-02-28T14:15:27.890Z,66.27
2019-02-28T14:18:04.164Z,65.83
2019-02-28T14:20:40.357Z,65.53
2019-02-28T14:23:21.681Z,68.37
2019-02-28T14:29:14.907Z,67.43
2019-02-28T14:35:09.895Z,64.37
2019-02-28T14:37:46.708Z,66.22
2019-02-28T14:40:21.644Z,65.20
2019-02-28T14:42:56.176Z,65.57
2019-02-28T14:45:39.022Z,62.13
2019-02-28T14:48:13.559Z,65.20
2019-02-28T14:50:50.707Z,64.00
2019-02-28T14:53:26.194Z,62.43
2019-02-28T14:56:00.862Z,61.60
2019-02-28T14:58:37.110Z,59.23
2019-02-28T15:01:16.824Z,57.53
2019-02-28T15:03:48.617Z,58.40
2019-02-28T15:06:26.308Z,58.47
2019-02-28T15:09:00.371Z,58.33
2019-02-28T15:11:34.649Z,56.90
2019-02-28T15:14:10.520Z,55.67
2019-02-28T15:16:46.143Z,53.95
2019-02-28T15:19:21.359Z,53.80
2019-02-28T15:21:55.823Z,51.42
2019-02-28T15:24:36.065Z,55.40
2019-02-28T15:27:10.430Z,55.63
2019-02-28T15:29:45.477Z,55.80
2019-02-28T15:32:23.496Z,53.77
2019-02-28T15:35:03.865Z,54.23
2019-02-28T15:37:36.784Z,52.98
2019-02-28T15:40:16.311Z,49.42
2019-02-28T15:42:52.115Z,50.30
2019-02-28T15:45:27.893Z,50.73
2019-02-28T15:48:03.518Z,52.13
2019-02-28T15:50:37.590Z,51.00
2019-02-28T15:53:14.339Z,49.63
2019-02-28T15:55:47.435Z,50.67
2019-02-28T15:58:22.250Z,48.83
2019-02-28T16:00:56.631Z,50.57
2019-02-28T16:03:35.510Z,48.77
2019-02-28T16:06:09.520Z,49.67
2019-02-28T16:08:46.787Z,48.73
2019-02-28T16:11:18.654Z,49.30
2019-02-28T16:13:52.512Z,50.13
2019-02-28T16:16:27.549Z,50.80
2019-02-28T16:19:01.588Z,51.00
2019-02-28T16:21:38.133Z,48.67
2019-02-28T16:24:10.556Z,50.13
2019-02-28T16:26:44.693Z,52.97
2019-02-28T16:29:20.714Z,55.27
2019-02-28T16:31:53.643Z,54.40
2019-02-28T16:34:27.586Z,55.07
2019-02-28T16:37:01.947Z,58.27
2019-02-28T16:39:35.943Z,58.23
2019-02-28T16:42:11.406Z,56.43
2019-02-28T16:44:46.405Z,57.40
2019-02-28T16:47:21.455Z,58.58
2019-02-28T16:49:55.512Z,61.15
2019-02-28T16:52:29.469Z,60.60
2019-02-28T16:55:03.518Z,62.27
2019-02-28T16:57:37.459Z,60.55
2019-02-28T17:00:16.564Z,61.00
2019-02-28T17:02:50.559Z,62.67
2019-02-28T17:05:28.001Z,63.74
2019-02-28T17:08:02.125Z,67.07
2019-02-28T17:10:40.185Z,69.57
2019-02-28T17:13:12.404Z,68.70
2019-02-28T17:15:48.183Z,69.23
2019-02-28T17:18:22.559Z,71.73
2019-02-28T17:20:59.467Z,71.70
2019-02-28T17:23:33.667Z,71.23
2019-02-28T17:26:08.630Z,83.03
2019-02-28T17:28:46.623Z,85.30
2019-02-28T17:31:20.538Z,86.70
2019-02-28T17:33:54.584Z,87.70
2019-02-28T17:36:30.072Z,90.13
2019-02-28T17:39:04.110Z,94.60
2019-02-28T17:41:39.719Z,97.33
2019-02-28T17:44:33.969Z,89.43
2019-02-28T17:47:13.229Z,84.58
2019-02-28T17:50:05.554Z,82.13
2019-02-28T17:53:01.144Z,87.37
2019-02-28T17:55:47.405Z,88.52
2019-02-28T17:58:41.575Z,89.70
2019-02-28T18:01:37.654Z,92.37
2019-02-28T18:04:28.777Z,92.03
2019-02-28T18:07:35.971Z,87.70
2019-02-28T18:10:33.626Z,88.80
2019-02-28T18:13:19.998Z,88.10
2019-02-28T18:16:30.210Z,92.27
2019-02-28T18:19:33.094Z,91.37
2019-02-28T18:22:16.142Z,91.08
2019-02-28T18:25:22.491Z,91.33
2019-02-28T18:28:26.989Z,91.40
2019-02-28T18:31:22.084Z,92.37
2019-02-28T18:33:57.511Z,91.90
2019-02-28T18:36:32.970Z,92.67
2019-02-28T18:39:08.113Z,93.27
2019-02-28T18:41:43.159Z,88.83
2019-02-28T18:44:17.185Z,92.07
2019-02-28T18:46:51.156Z,89.83
2019-02-28T18:49:26.665Z,91.47
2019-02-28T18:52:00.348Z,90.80
2019-02-28T18:54:34.355Z,93.80
2019-02-28T18:57:09.916Z,90.20
2019-02-28T18:59:43.849Z,89.90
2019-02-28T19:02:18.090Z,90.47
2019-02-28T19:04:52.074Z,87.77
2019-02-28T19:07:26.660Z,89.97
2019-02-28T19:10:00.628Z,88.27
2019-02-28T19:12:34.544Z,88.13
2019-02-28T19:15:16.331Z,87.15
2019-02-28T19:17:50.311Z,84.97
2019-02-28T19:20:24.169Z,82.83
2019-02-28T19:22:59.616Z,81.00
2019-02-28T19:25:36.710Z,80.43
2019-02-28T19:28:08.692Z,80.07
2019-02-28T19:30:42.643Z,79.33
2019-02-28T19:33:18.087Z,77.77
2019-02-28T19:35:53.443Z,80.27
2019-02-28T19:38:28.833Z,74.27
2019-02-28T19:41:04.188Z,75.85
2019-02-28T19:43:38.052Z,73.47
2019-02-28T19:46:11.955Z,73.50
2019-02-28T19:48:45.999Z,73.72
2019-02-28T19:51:19.959Z,69.45
2019-02-28T19:53:53.859Z,74.95
2019-02-28T19:56:27.844Z,70.50
2019-02-28T19:59:01.800Z,66.25
2019-02-28T20:01:35.759Z,59.63
2019-02-28T20:04:09.679Z,59.90
2019-02-28T20:06:43.697Z,56.27
2019-02-28T20:09:17.823Z,52.50
2019-02-28T20:11:51.795Z,51.00
2019-02-28T20:14:25.878Z,50.20
2019-02-28T20:16:59.890Z,50.27
2019-02-28T20:19:33.786Z,51.67
2019-02-28T20:22:08.065Z,51.35
2019-02-28T20:24:42.102Z,52.43
2019-02-28T20:27:17.477Z,50.87
2019-02-28T20:29:55.165Z,52.30
2019-02-28T20:32:27.833Z,53.40
2019-02-28T20:35:01.738Z,53.63
2019-02-28T20:37:35.627Z,54.57
2019-02-28T20:40:22.843Z,56.70
2019-02-28T20:42:57.730Z,57.33
2019-02-28T20:45:31.760Z,55.88
2019-02-28T20:48:05.879Z,55.78
2019-02-28T20:50:52.630Z,59.90
2019-02-28T20:53:25.824Z,57.67
2019-02-28T20:56:01.010Z,59.17
2019-02-28T20:58:35.010Z,59.43
2019-02-28T21:04:11.884Z,62.15
2019-02-28T21:06:45.763Z,63.55
2019-02-28T21:09:20.636Z,61.93
2019-02-28T21:11:54.630Z,60.53
2019-02-28T21:14:30.120Z,61.70
2019-02-28T21:17:04.128Z,61.97
2019-02-28T21:19:39.463Z,60.33
2019-02-28T21:22:13.593Z,57.80
2019-02-28T21:24:47.472Z,59.33
2019-02-28T21:27:21.407Z,59.57
2019-02-28T21:29:55.365Z,59.17
2019-02-28T21:32:29.248Z,59.00
2019-02-28T21:35:04.652Z,56.43
2019-02-28T21:37:38.587Z,53.90
2019-02-28T21:40:15.332Z,55.87
2019-02-28T21:42:49.295Z,54.80
2019-02-28T21:45:27.018Z,54.35
2019-02-28T21:48:09.578Z,55.13
2019-02-28T21:50:42.461Z,54.83
2019-02-28T21:53:16.404Z,55.00
2019-02-28T21:55:50.467Z,54.93
2019-02-28T21:58:25.951Z,53.73
2019-02-28T22:01:00.033Z,53.60
2019-02-28T22:03:34.062Z,52.87
2019-02-28T22:06:08.019Z,51.93
2019-02-28T22:08:44.341Z,53.08
2019-02-28T22:11:19.784Z,53.60
2019-02-28T22:13:55.323Z,52.80
2019-02-28T22:16:29.295Z,52.20
2019-02-28T22:19:03.970Z,51.83
2019-02-28T22:21:38.656Z,51.13
2019-02-28T22:24:13.826Z,49.95
2019-02-28T22:26:50.694Z,49.53
2019-02-28T22:29:24.756Z,48.80
2019-02-28T22:31:58.717Z,48.52
2019-02-28T22:34:32.724Z,47.20
2019-02-28T22:37:06.677Z,44.98
2019-02-28T22:39:40.587Z,44.67
2019-02-28T22:42:22.143Z,45.50
2019-02-28T22:44:53.615Z,45.00
2019-02-28T22:47:26.641Z,42.70
2019-02-28T22:50:02.284Z,44.30
2019-02-28T22:52:37.868Z,42.80
2019-02-28T22:55:14.661Z,42.53
2019-02-28T22:57:49.866Z,43.33
2019-02-28T23:00:45.327Z,42.40
2019-02-28T23:03:19.419Z,40.63
2019-02-28T23:05:53.553Z,42.17
2019-02-28T23:08:27.602Z,42.60
2019-02-28T23:14:34.735Z,42.77
2019-02-28T23:17:07.120Z,43.37
2019-02-28T23:19:41.062Z,44.93
2019-02-28T23:22:16.846Z,44.17
2019-02-28T23:24:50.474Z,43.73
2019-02-28T23:27:24.406Z,45.30
2019-02-28T23:30:08.071Z,43.57
2019-02-28T23:32:54.563Z,43.97
2019-02-28T23:35:31.414Z,45.33
2019-02-28T23:38:06.776Z,46.00
2019-02-28T23:40:44.741Z,45.47
2019-02-28T23:43:18.760Z,46.30
2019-02-28T23:45:52.759Z,45.40
2019-02-28T23:48:28.329Z,44.57
2019-02-28T23:51:11.385Z,47.10
2019-02-28T23:53:46.556Z,46.68
2019-02-28T23:56:20.485Z,45.65
2019-02-28T23:58:55.905Z,47.93
